createdAt,value
2022-10-14T12:28:09.115Z,16.18
2022-10-14T12:30:38.088Z,15.89
2022-10-14T12:33:07.340Z,15.52
2022-10-14T12:35:49.187Z,15.33
2022-10-14T12:38:19.706Z,15.04
2022-10-14T12:40:49.482Z,14.81
2022-10-14T12:43:25.493Z,14.68
2022-10-14T12:46:20.730Z,14.49
2022-10-14T12:48:51.535Z,14.30
2022-10-14T12:51:21.380Z,14.17
2022-10-14T12:54:05.040Z,13.99
2022-10-14T12:56:34.920Z,13.89
2022-10-14T12:59:06.323Z,13.83
2022-10-14T13:01:38.946Z,13.78
2022-10-14T13:04:10.146Z,13.70
2022-10-14T13:06:40.161Z,13.63
2022-10-14T13:09:31.741Z,13.51
2022-10-14T13:12:13.244Z,13.51
2022-10-14T13:14:56.082Z,13.43
2022-10-14T13:17:33.091Z,13.41
2022-10-14T13:20:01.166Z,13.39
2022-10-14T13:22:39.419Z,13.34
2022-10-14T13:25:13.513Z,13.29
2022-10-14T13:27:50.825Z,13.17
2022-10-14T13:30:21.315Z,13.14
2022-10-14T13:32:53.738Z,13.06
2022-10-14T13:35:25.690Z,12.88
2022-10-14T13:37:59.526Z,12.85
2022-10-14T13:40:30.239Z,12.84
2022-10-14T13:42:59.616Z,12.76
2022-10-14T13:45:32.353Z,12.72
2022-10-14T13:48:01.845Z,12.72
2022-10-14T13:50:33.974Z,12.71
2022-10-14T13:53:04.660Z,12.64
2022-10-14T13:55:32.787Z,12.60
2022-10-14T13:58:12.436Z,12.44
2022-10-14T14:00:43.961Z,12.46
2022-10-14T14:03:17.379Z,12.40
2022-10-14T14:05:45.582Z,12.32
2022-10-14T14:11:22.042Z,12.23
2022-10-14T14:13:59.896Z,12.21
2022-10-14T14:16:31.327Z,12.21
2022-10-14T14:19:08.263Z,12.07
2022-10-14T14:21:37.351Z,12.12
2022-10-14T14:24:11.979Z,12.15
2022-10-14T14:26:40.655Z,12.14
2022-10-14T14:29:16.078Z,12.15
2022-10-14T14:32:05.675Z,12.07
2022-10-14T14:34:36.060Z,12.10
2022-10-14T14:37:25.114Z,12.12
2022-10-14T14:39:58.358Z,12.12
2022-10-14T14:42:27.765Z,12.13
2022-10-14T14:44:56.873Z,12.11
2022-10-14T14:47:26.690Z,12.11
2022-10-14T14:50:06.378Z,12.12
2022-10-14T14:52:45.193Z,12.13
2022-10-14T14:55:46.634Z,12.13
2022-10-14T14:58:25.807Z,12.13
2022-10-14T15:00:55.150Z,12.06
2022-10-14T15:03:24.350Z,12.07
2022-10-14T15:05:56.627Z,12.06
2022-10-14T15:08:27.569Z,12.06
2022-10-14T15:10:58.021Z,12.07
2022-10-14T15:13:30.327Z,12.05
2022-10-14T15:15:58.740Z,12.01
2022-10-14T15:18:28.157Z,11.97
2022-10-14T15:21:06.943Z,11.97
2022-10-14T15:23:39.178Z,11.93
2022-10-14T15:26:21.684Z,11.94
2022-10-14T15:29:03.916Z,11.90
2022-10-14T15:31:32.137Z,11.90
2022-10-14T15:34:00.193Z,11.92
2022-10-14T15:36:31.704Z,11.92
2022-10-14T15:39:01.580Z,11.90
2022-10-14T15:41:29.834Z,11.88
2022-10-14T15:43:57.885Z,11.88
2022-10-14T15:46:43.354Z,11.89
2022-10-14T15:49:15.383Z,11.81
2022-10-14T15:51:44.826Z,11.84
2022-10-14T15:54:15.390Z,11.82
2022-10-14T15:56:43.481Z,11.81
2022-10-14T15:59:11.614Z,11.81
2022-10-14T16:01:41.365Z,11.82
2022-10-14T16:04:15.587Z,11.78
2022-10-14T16:06:45.110Z,11.80
2022-10-14T16:09:13.253Z,11.80
2022-10-14T16:11:41.327Z,11.79
2022-10-14T16:14:10.716Z,11.75
2022-10-14T16:16:41.856Z,11.71
2022-10-14T16:19:09.922Z,11.73
2022-10-14T16:21:38.263Z,11.60
2022-10-14T16:24:08.646Z,11.53
2022-10-14T16:26:37.188Z,11.54
2022-10-14T16:29:05.228Z,11.46
2022-10-14T16:31:33.270Z,11.44
2022-10-14T16:34:01.984Z,11.48
2022-10-14T16:36:30.072Z,11.51
2022-10-14T16:39:01.829Z,11.46
2022-10-14T16:41:31.689Z,11.39
2022-10-14T16:43:59.814Z,11.45
2022-10-14T16:46:41.702Z,11.39
2022-10-14T16:49:09.844Z,11.37
2022-10-14T16:51:37.972Z,11.39
2022-10-14T16:54:06.160Z,11.42
2022-10-14T16:56:53.927Z,11.42
2022-10-14T16:59:22.537Z,11.38
2022-10-14T17:01:51.303Z,11.31
2022-10-14T17:04:22.378Z,11.37
2022-10-14T17:06:56.831Z,11.39
2022-10-14T17:12:03.284Z,11.33
2022-10-14T17:14:32.408Z,11.26
2022-10-14T17:17:00.499Z,11.26
2022-10-14T17:19:28.700Z,11.27
2022-10-14T17:21:56.790Z,11.32
2022-10-14T17:24:26.140Z,11.29
2022-10-14T17:26:54.182Z,11.30
2022-10-14T17:29:23.632Z,11.32
2022-10-14T17:31:52.699Z,11.30
2022-10-14T17:34:20.742Z,11.25
2022-10-14T17:36:49.270Z,11.30
2022-10-14T17:39:25.843Z,11.26
2022-10-14T17:41:57.566Z,11.32
2022-10-14T17:44:28.941Z,11.32
2022-10-14T17:46:57.163Z,11.35
2022-10-14T17:49:25.330Z,11.35
2022-10-14T17:51:53.447Z,11.23
2022-10-14T17:54:21.695Z,11.25
2022-10-14T17:56:49.771Z,11.24
2022-10-14T17:59:17.861Z,11.23
2022-10-14T18:02:04.006Z,11.20
2022-10-14T18:04:33.275Z,11.16
2022-10-14T18:07:01.397Z,11.17
2022-10-14T18:09:29.521Z,11.12
2022-10-14T18:12:13.444Z,11.10
2022-10-14T18:14:42.005Z,11.10
2022-10-14T18:17:12.544Z,11.13
2022-10-14T18:19:41.506Z,11.14
2022-10-14T18:22:11.312Z,11.16
2022-10-14T18:24:39.616Z,11.18
2022-10-14T18:27:07.851Z,11.10
2022-10-14T18:29:35.966Z,11.10
2022-10-14T18:32:04.289Z,11.00
2022-10-14T18:34:33.854Z,11.04
2022-10-14T18:37:01.959Z,11.07
2022-10-14T18:39:30.229Z,11.07
2022-10-14T18:41:58.328Z,11.08
2022-10-14T18:44:26.409Z,11.12
2022-10-14T18:46:54.496Z,11.13
2022-10-14T18:49:22.628Z,11.15
2022-10-14T18:51:53.623Z,11.15
2022-10-14T18:54:23.814Z,11.16
2022-10-14T18:56:51.949Z,11.15
2022-10-14T18:59:21.563Z,11.11
2022-10-14T19:01:53.363Z,11.12
2022-10-14T19:04:22.721Z,11.16
2022-10-14T19:06:52.228Z,11.17
2022-10-14T19:09:24.094Z,11.15
2022-10-14T19:11:52.650Z,11.15
2022-10-14T19:14:20.869Z,11.16
2022-10-14T19:16:49.853Z,11.18
2022-10-14T19:19:19.450Z,11.12
2022-10-14T19:21:49.406Z,11.11
2022-10-14T19:24:18.915Z,11.10
2022-10-14T19:26:48.170Z,11.08
2022-10-14T19:29:17.058Z,11.02
2022-10-14T19:31:45.128Z,10.97
2022-10-14T19:34:14.454Z,10.90
2022-10-14T19:36:42.915Z,10.89
2022-10-14T19:39:13.060Z,10.87
2022-10-14T19:41:45.195Z,10.86
2022-10-14T19:44:14.017Z,10.85
2022-10-14T19:46:42.386Z,10.68
2022-10-14T19:49:12.363Z,10.71
2022-10-14T19:51:40.942Z,10.69
2022-10-14T19:54:09.034Z,10.67
2022-10-14T19:56:37.044Z,10.66
2022-10-14T19:59:06.513Z,10.59
2022-10-14T20:01:34.656Z,10.57
2022-10-14T20:04:03.391Z,10.52
2022-10-14T20:06:33.370Z,10.52
2022-10-14T20:09:01.599Z,10.53
2022-10-14T20:11:29.763Z,10.47
2022-10-14T20:13:57.800Z,10.27
2022-10-14T20:16:27.601Z,10.33
2022-10-14T20:18:55.780Z,10.29
2022-10-14T20:21:23.884Z,10.27
2022-10-14T20:23:51.937Z,10.28
2022-10-14T20:26:21.146Z,10.27
2022-10-14T20:28:50.091Z,10.24
2022-10-14T20:31:19.348Z,10.24
2022-10-14T20:33:48.764Z,10.22
2022-10-14T20:36:17.610Z,10.17
2022-10-14T20:38:45.857Z,10.16
2022-10-14T20:41:15.383Z,10.12
2022-10-14T20:43:43.909Z,10.12
2022-10-14T20:46:12.265Z,10.15
2022-10-14T20:48:40.467Z,10.11
2022-10-14T20:51:11.549Z,10.12
2022-10-14T20:56:13.382Z,10.11
2022-10-14T20:58:41.456Z,10.10
2022-10-14T21:01:10.437Z,10.08
2022-10-14T21:03:38.613Z,10.06
2022-10-14T21:06:08.333Z,10.07
2022-10-14T21:08:38.013Z,10.05
2022-10-14T21:11:10.521Z,10.03
2022-10-14T21:13:42.191Z,10.02
2022-10-14T21:16:21.443Z,10.02
2022-10-14T21:18:53.698Z,10.00
2022-10-14T21:21:26.473Z,9.99
2022-10-14T21:23:56.091Z,9.98
2022-10-14T21:26:25.401Z,9.97
2022-10-14T21:28:53.586Z,9.91
2022-10-14T21:31:21.802Z,9.91
2022-10-14T21:33:54.895Z,9.88
2022-10-14T21:36:22.905Z,9.88
2022-10-14T21:38:51.197Z,9.87
2022-10-14T21:41:20.743Z,9.80
2022-10-14T21:43:48.811Z,9.76
2022-10-14T21:46:17.888Z,9.77
2022-10-14T21:48:46.286Z,9.76
2022-10-14T21:51:16.104Z,9.74
2022-10-14T21:53:44.966Z,9.74
2022-10-14T21:56:13.940Z,9.75
2022-10-14T21:58:43.535Z,9.74
2022-10-14T22:01:12.120Z,9.75
2022-10-14T22:03:40.560Z,9.75
2022-10-14T22:06:10.462Z,9.76
2022-10-14T22:08:40.954Z,9.75
2022-10-14T22:11:09.480Z,9.76
2022-10-14T22:13:37.504Z,9.76
2022-10-14T22:16:07.084Z,9.76
2022-10-14T22:18:35.121Z,9.77
2022-10-14T22:21:08.538Z,9.75
2022-10-14T22:23:36.728Z,9.75
2022-10-14T22:26:05.719Z,9.78
2022-10-14T22:28:34.121Z,9.77
2022-10-14T22:31:06.346Z,9.79
2022-10-14T22:33:35.199Z,9.78
2022-10-14T22:36:07.123Z,9.80
2022-10-14T22:38:35.448Z,9.78
2022-10-14T22:41:03.563Z,9.79
2022-10-14T22:43:32.019Z,9.78
2022-10-14T22:46:00.714Z,9.80
2022-10-14T22:48:31.053Z,9.81
2022-10-14T22:51:03.205Z,9.78
2022-10-14T22:53:31.510Z,9.81
2022-10-14T22:56:00.065Z,9.81
2022-10-14T22:58:28.365Z,9.81
2022-10-14T23:00:57.001Z,9.80
2022-10-14T23:03:25.668Z,9.78
2022-10-14T23:05:55.137Z,9.75
2022-10-14T23:08:23.306Z,9.70
2022-10-14T23:10:51.857Z,9.66
2022-10-14T23:13:19.886Z,9.68
2022-10-14T23:15:55.751Z,9.74
2022-10-14T23:18:23.998Z,9.78
2022-10-14T23:20:52.576Z,9.82
2022-10-14T23:23:22.035Z,9.84
2022-10-14T23:25:50.113Z,9.84
2022-10-14T23:28:18.280Z,9.85
2022-10-14T23:30:46.343Z,9.87
2022-10-14T23:33:14.765Z,9.90
2022-10-14T23:35:42.797Z,9.91
2022-10-14T23:38:12.446Z,9.91
2022-10-14T23:40:41.905Z,9.92
2022-10-14T23:43:10.050Z,9.92
2022-10-14T23:45:38.112Z,9.94
2022-10-14T23:48:06.388Z,9.97
2022-10-14T23:50:34.439Z,9.98
2022-10-14T23:53:02.469Z,9.99
2022-10-14T23:55:30.626Z,10.01
2022-10-14T23:58:00.042Z,10.01
